Adams Landing, Vermont
Current Conditions -  °F | °C
As of 2:53 PM on Saturday 25 Oct 2014 (Local Time) from KPBG Reporting Station
Overcast Overcast  
Wind Chill: 12°   Ceiling: 4700
Heat Index: 12°   Visibility: 10mi
Dew Point:   Wind: 10mph
Humidity: 72%   Direction: 150°SSE
Pressure: 29.58"   Gusts: NA
Location:  44.717°N, 73.3067°W
Report Text: KPBG 251853Z AUTO 15009KT 10SM BKN047 OVC055 12/07 A2958 RMK AO2 SLP016 T01220072
Loading
Personal Weather Stations






























Interactive Weather Map
Tropical Storm Tracking
New forecast layout! Learn more

10-Day Weather Forecast

Advertisements
Track Severe Weather on mobile